createdAt,value
2018-07-22T00:02:24.600Z,99713.08
2018-07-22T00:04:52.294Z,99705.48
2018-07-22T00:07:19.902Z,99702.70
2018-07-22T00:09:47.533Z,99701.47
2018-07-22T00:12:15.164Z,99698.22
2018-07-22T00:14:42.810Z,99703.69
2018-07-22T00:17:10.688Z,99702.64
2018-07-22T00:19:38.428Z,99707.91
2018-07-22T00:22:06.081Z,99706.67
2018-07-22T00:24:33.781Z,99705.64
2018-07-22T00:27:01.414Z,99703.32
2018-07-22T00:29:29.147Z,99708.47
2018-07-22T00:31:56.775Z,99699.88
2018-07-22T00:34:24.554Z,99701.84
2018-07-22T00:36:52.198Z,99709.09
2018-07-22T00:39:19.780Z,99712.33
2018-07-22T00:41:47.450Z,99710.71
2018-07-22T00:44:15.149Z,99709.48
2018-07-22T00:46:42.745Z,99711.17
2018-07-22T00:49:10.446Z,99714.12
2018-07-22T00:51:38.137Z,99709.16
2018-07-22T00:54:05.801Z,99705.80
2018-07-22T00:56:33.403Z,99709.85
2018-07-22T00:59:01.143Z,99707.83
2018-07-22T01:01:28.829Z,99708.91
2018-07-22T01:03:56.459Z,99710.70
2018-07-22T01:06:24.170Z,99704.13
2018-07-22T01:08:51.777Z,99704.54
2018-07-22T01:11:19.433Z,99707.25
2018-07-22T01:13:47.049Z,99701.09
2018-07-22T01:16:14.754Z,99703.61
2018-07-22T01:18:42.336Z,99703.89
2018-07-22T01:21:10.053Z,99699.23
2018-07-22T01:23:37.713Z,99700.28
2018-07-22T01:26:05.422Z,99702.66
2018-07-22T01:28:33.125Z,99699.67
2018-07-22T01:31:00.765Z,99703.13
2018-07-22T01:33:28.446Z,99701.66
2018-07-22T01:35:56.172Z,99708.34
2018-07-22T01:38:23.786Z,99709.72
2018-07-22T01:40:51.541Z,99707.91
2018-07-22T01:43:19.168Z,99704.53
2018-07-22T01:45:46.780Z,99704.44
2018-07-22T01:48:14.449Z,99705.06
2018-07-22T01:50:42.074Z,99706.68
2018-07-22T01:53:09.867Z,99706.63
2018-07-22T01:55:37.524Z,99706.52
2018-07-22T01:58:05.262Z,99705.19
2018-07-22T02:00:32.872Z,99707.72
2018-07-22T02:03:00.562Z,99714.20
2018-07-22T02:05:29.035Z,99707.43
2018-07-22T02:07:57.006Z,99702.66
2018-07-22T02:10:36.726Z,99706.13
2018-07-22T02:13:04.582Z,99703.36
2018-07-22T02:15:32.290Z,99704.16
2018-07-22T02:17:59.929Z,99705.53
2018-07-22T02:20:27.689Z,99706.58
2018-07-22T02:22:55.321Z,99703.24
2018-07-22T02:25:23.034Z,99708.66
2018-07-22T02:27:50.670Z,99705.13
2018-07-22T02:30:18.375Z,99702.95
2018-07-22T02:32:46.115Z,99700.77
2018-07-22T02:35:13.753Z,99699.13
2018-07-22T02:37:41.455Z,99696.36
2018-07-22T02:40:09.146Z,99700.45
2018-07-22T02:42:36.994Z,99694.98
2018-07-22T02:45:04.837Z,99694.13
2018-07-22T02:47:32.469Z,99697.39
2018-07-22T02:50:00.171Z,99700.38
2018-07-22T02:52:27.822Z,99694.59
2018-07-22T02:54:55.467Z,99697.67
2018-07-22T02:57:23.100Z,99702.27
2018-07-22T02:59:50.825Z,99699.48
2018-07-22T03:02:18.493Z,99701.23
2018-07-22T03:04:46.257Z,99702.22
2018-07-22T03:07:13.923Z,99702.13
2018-07-22T03:09:41.657Z,99697.58
2018-07-22T03:12:09.377Z,99702.67
2018-07-22T03:14:37.001Z,99702.27
2018-07-22T03:17:04.780Z,99699.42
2018-07-22T03:19:32.410Z,99708.27
2018-07-22T03:22:00.122Z,99695.12
2018-07-22T03:24:27.864Z,99691.28
2018-07-22T03:26:55.506Z,99696.17
2018-07-22T03:29:23.157Z,99697.77
2018-07-22T03:31:50.901Z,99698.00
2018-07-22T03:34:18.585Z,99697.82
2018-07-22T03:36:46.247Z,99703.70
2018-07-22T03:39:13.868Z,99705.82
2018-07-22T03:41:41.598Z,99705.88
2018-07-22T03:44:09.266Z,99704.83
2018-07-22T03:46:36.868Z,99713.26
2018-07-22T03:49:04.552Z,99712.55
2018-07-22T03:51:32.246Z,99704.78
2018-07-22T03:53:59.958Z,99707.91
2018-07-22T03:56:27.713Z,99710.48
2018-07-22T03:58:55.322Z,99717.28
2018-07-22T04:01:23.026Z,99711.87
2018-07-22T04:03:50.725Z,99718.14
2018-07-22T04:06:18.474Z,99711.48
2018-07-22T04:08:46.177Z,99709.33
2018-07-22T04:11:13.845Z,99712.41
2018-07-22T04:13:41.574Z,99717.47
2018-07-22T04:16:09.320Z,99722.31
2018-07-22T04:18:43.633Z,99718.75
2018-07-22T04:21:11.373Z,99730.41
2018-07-22T04:23:39.137Z,99725.94
2018-07-22T04:26:06.779Z,99724.72
2018-07-22T04:28:34.443Z,99727.42
2018-07-22T04:31:02.130Z,99726.73
2018-07-22T04:33:29.805Z,99723.43
2018-07-22T04:35:57.417Z,99719.14
2018-07-22T04:38:25.107Z,99727.09
2018-07-22T04:40:52.843Z,99727.64
2018-07-22T04:43:20.456Z,99735.09
2018-07-22T04:45:48.073Z,99732.33
2018-07-22T04:48:15.758Z,99734.01
2018-07-22T04:50:43.448Z,99736.23
2018-07-22T04:53:11.212Z,99740.99
2018-07-22T04:55:38.953Z,99746.23
2018-07-22T04:58:06.693Z,99750.58
2018-07-22T05:00:34.426Z,99751.38
2018-07-22T05:03:02.069Z,99745.83
2018-07-22T05:05:29.788Z,99752.66
2018-07-22T05:07:57.458Z,99750.61
2018-07-22T05:10:37.205Z,99755.94
2018-07-22T05:13:05.029Z,99764.94
2018-07-22T05:15:32.778Z,99766.16
2018-07-22T05:18:00.554Z,99760.07
2018-07-22T05:20:28.265Z,99757.70
2018-07-22T05:22:56.020Z,99766.27
2018-07-22T05:25:23.941Z,99764.70
2018-07-22T05:27:51.584Z,99762.98
2018-07-22T05:30:19.277Z,99764.05
2018-07-22T05:32:46.903Z,99763.45
2018-07-22T05:35:14.548Z,99767.48
2018-07-22T05:37:42.185Z,99770.19
2018-07-22T05:40:09.870Z,99779.20
2018-07-22T05:42:37.549Z,99781.45
2018-07-22T05:45:05.395Z,99782.09
2018-07-22T05:47:33.126Z,99778.51
2018-07-22T05:50:01.497Z,99781.84
2018-07-22T05:52:29.479Z,99789.64
2018-07-22T05:54:57.160Z,99788.03
2018-07-22T05:57:25.042Z,99788.00
2018-07-22T05:59:52.731Z,99792.44
2018-07-22T06:02:20.490Z,99789.21
2018-07-22T06:04:48.336Z,99792.72
2018-07-22T06:07:15.998Z,99793.59
2018-07-22T06:09:43.678Z,99787.48
2018-07-22T06:12:11.377Z,99787.16
2018-07-22T06:14:39.137Z,99792.73
2018-07-22T06:17:07.001Z,99790.38
2018-07-22T06:19:34.679Z,99788.81
2018-07-22T06:22:02.397Z,99790.70
2018-07-22T06:24:30.071Z,99790.81
2018-07-22T06:26:57.754Z,99798.07
2018-07-22T06:29:25.452Z,99788.24
2018-07-22T06:31:53.172Z,99790.90
2018-07-22T06:34:20.837Z,99796.78
2018-07-22T06:36:48.630Z,99792.52
2018-07-22T06:39:16.319Z,99796.56
2018-07-22T06:41:44.390Z,99797.66
2018-07-22T06:44:12.106Z,99799.12
2018-07-22T06:46:39.802Z,99800.20
2018-07-22T06:49:07.524Z,99798.94
2018-07-22T06:51:35.222Z,99802.70
2018-07-22T06:54:03.190Z,99806.03
2018-07-22T06:56:30.937Z,99806.30
2018-07-22T06:58:58.626Z,99810.35
2018-07-22T07:01:26.389Z,99809.33
2018-07-22T07:03:54.183Z,99807.22
2018-07-22T07:06:21.947Z,99807.50
2018-07-22T07:11:16.853Z,99805.54
2018-07-22T07:13:44.570Z,99804.91
2018-07-22T07:16:12.346Z,99808.13
2018-07-22T07:18:40.018Z,99809.71
2018-07-22T07:21:07.697Z,99811.16
2018-07-22T07:23:35.464Z,99814.59
2018-07-22T07:26:03.143Z,99813.39
2018-07-22T07:28:30.887Z,99811.42
2018-07-22T07:30:58.654Z,99806.33
2018-07-22T07:33:26.483Z,99810.19
2018-07-22T07:35:54.178Z,99810.83
2018-07-22T07:38:21.917Z,99815.83
2018-07-22T07:40:49.718Z,99816.97
2018-07-22T07:43:18.318Z,99814.30
2018-07-22T07:45:46.034Z,99814.84
2018-07-22T07:48:13.869Z,99807.57
2018-07-22T07:50:41.631Z,99812.13
2018-07-22T07:53:09.360Z,99804.41
2018-07-22T07:55:37.136Z,99808.59
2018-07-22T07:58:04.925Z,99815.73
2018-07-22T08:00:32.626Z,99809.42
2018-07-22T08:03:00.250Z,99801.67
2018-07-22T08:05:28.076Z,99803.23
2018-07-22T08:07:55.680Z,99805.14
2018-07-22T08:10:37.177Z,99804.70
2018-07-22T08:13:05.613Z,99804.05
2018-07-22T08:15:33.290Z,99799.77
2018-07-22T08:18:01.030Z,99807.05
2018-07-22T08:20:28.906Z,99803.84
2018-07-22T08:22:56.674Z,99798.79
2018-07-22T08:25:24.497Z,99800.65
2018-07-22T08:27:52.222Z,99807.86
2018-07-22T08:30:19.944Z,99807.32
2018-07-22T08:32:47.761Z,99815.41
2018-07-22T08:35:15.431Z,99806.80
2018-07-22T08:37:43.186Z,99812.70
2018-07-22T08:40:10.937Z,99808.70
2018-07-22T08:42:38.605Z,99808.99
2018-07-22T08:45:06.765Z,99809.80
2018-07-22T08:47:34.480Z,99808.44
2018-07-22T08:50:02.228Z,99810.82
2018-07-22T08:52:29.996Z,99814.48
2018-07-22T08:54:57.653Z,99817.41
2018-07-22T08:57:25.469Z,99820.61
2018-07-22T08:59:53.239Z,99817.92
2018-07-22T09:02:21.034Z,99815.55
2018-07-22T09:04:48.865Z,99821.68
2018-07-22T09:07:16.553Z,99818.77
2018-07-22T09:09:44.242Z,99818.18
2018-07-22T09:12:12.046Z,99817.34
2018-07-22T09:14:39.916Z,99823.22
2018-07-22T09:17:07.701Z,99820.78
2018-07-22T09:19:35.356Z,99822.47
2018-07-22T09:22:03.038Z,99824.17
2018-07-22T09:24:31.252Z,99824.36
2018-07-22T09:26:59.024Z,99827.16
2018-07-22T09:29:27.034Z,99821.80
2018-07-22T09:31:54.765Z,99825.98
2018-07-22T09:34:22.417Z,99818.79
2018-07-22T09:36:50.085Z,99817.33
2018-07-22T09:39:17.712Z,99818.92
2018-07-22T09:41:45.429Z,99819.91
2018-07-22T09:44:13.054Z,99822.94
2018-07-22T09:46:40.701Z,99820.16
2018-07-22T09:49:08.433Z,99832.27
2018-07-22T09:51:36.109Z,99828.38
2018-07-22T09:54:03.922Z,99823.50
2018-07-22T09:56:31.561Z,99826.17
2018-07-22T09:58:59.501Z,99830.29
2018-07-22T10:01:27.109Z,99825.98
2018-07-22T10:03:54.734Z,99836.22
2018-07-22T10:06:22.522Z,99824.45
2018-07-22T10:22:57.851Z,99817.96
2018-07-22T10:25:25.539Z,99822.87
2018-07-22T10:27:53.470Z,99820.69
2018-07-22T10:30:21.236Z,99818.92
2018-07-22T10:32:49.336Z,99824.38
2018-07-22T10:35:17.064Z,99825.00
2018-07-22T10:37:44.910Z,99833.47
2018-07-22T10:40:13.400Z,99831.88
2018-07-22T10:42:41.288Z,99829.26
2018-07-22T10:45:09.091Z,99830.19
2018-07-22T10:47:37.246Z,99826.11
2018-07-22T10:50:05.274Z,99829.00
2018-07-22T10:52:33.279Z,99826.56
2018-07-22T10:55:01.002Z,99828.63
2018-07-22T10:57:28.843Z,99832.27
2018-07-22T10:59:56.675Z,99825.72
2018-07-22T11:02:24.640Z,99826.36
2018-07-22T11:04:52.914Z,99824.21
2018-07-22T11:07:21.354Z,99826.91
2018-07-22T11:09:49.695Z,99815.78
2018-07-22T11:12:17.507Z,99818.63
2018-07-22T11:14:45.300Z,99814.41
2018-07-22T11:17:13.358Z,99814.12
2018-07-22T11:19:41.186Z,99817.83
2018-07-22T11:22:09.287Z,99820.92
2018-07-22T11:24:37.118Z,99814.94
2018-07-22T11:27:05.291Z,99816.48
2018-07-22T11:29:33.287Z,99806.80
2018-07-22T11:32:01.170Z,99809.17
2018-07-22T11:34:28.961Z,99801.41
2018-07-22T11:36:57.740Z,99797.79
2018-07-22T11:39:25.726Z,99795.37
2018-07-22T11:41:53.454Z,99797.94
2018-07-22T11:44:21.440Z,99797.47
2018-07-22T11:46:49.143Z,99792.11
2018-07-22T11:49:16.835Z,99791.95
2018-07-22T11:51:44.591Z,99792.14
2018-07-22T11:54:12.302Z,99790.61
2018-07-22T11:56:40.047Z,99788.05
2018-07-22T11:59:07.778Z,99784.08
2018-07-22T12:01:35.587Z,99791.91
2018-07-22T12:04:03.327Z,99788.25
2018-07-22T12:06:31.055Z,99781.64
2018-07-22T12:08:58.771Z,99791.19
2018-07-22T12:11:26.731Z,99777.94
2018-07-22T12:13:54.465Z,99777.44
2018-07-22T12:16:22.202Z,99777.67
2018-07-22T12:18:50.851Z,99782.48
2018-07-22T12:21:18.567Z,99771.27
2018-07-22T12:23:46.289Z,99775.05
2018-07-22T12:26:13.986Z,99773.26
2018-07-22T12:28:41.715Z,99775.56
2018-07-22T12:31:09.483Z,99776.34
2018-07-22T12:33:37.211Z,99772.34
2018-07-22T12:36:05.671Z,99771.73
2018-07-22T12:38:33.384Z,99763.56
2018-07-22T12:41:01.119Z,99758.58
2018-07-22T12:43:28.846Z,99759.44
2018-07-22T12:45:56.567Z,99760.04
2018-07-22T12:48:24.298Z,99755.00
2018-07-22T12:50:52.015Z,99755.47
2018-07-22T12:53:19.751Z,99754.67
2018-07-22T12:55:47.532Z,99751.66
2018-07-22T12:58:15.311Z,99743.95
2018-07-22T13:00:43.051Z,99739.61
2018-07-22T13:03:11.026Z,99736.27
2018-07-22T13:05:38.767Z,99730.78
2018-07-22T13:08:06.839Z,99732.38
2018-07-22T13:10:37.629Z,99738.88
2018-07-22T13:13:05.458Z,99735.21
2018-07-22T13:15:33.169Z,99738.31
2018-07-22T13:18:00.996Z,99735.30
2018-07-22T13:20:28.698Z,99728.11
2018-07-22T13:22:56.722Z,99731.63
2018-07-22T13:25:24.491Z,99724.46
2018-07-22T13:27:52.243Z,99720.91
2018-07-22T13:30:19.930Z,99721.61
2018-07-22T13:32:47.635Z,99717.55
2018-07-22T13:35:15.455Z,99718.81
2018-07-22T13:37:43.175Z,99718.30
2018-07-22T13:40:10.961Z,99722.70
2018-07-22T13:42:38.724Z,99716.85
2018-07-22T13:45:06.542Z,99711.05
2018-07-22T13:47:34.249Z,99709.44
2018-07-22T13:50:02.079Z,99709.53
2018-07-22T13:52:29.895Z,99701.72
2018-07-22T13:54:57.660Z,99706.70
2018-07-22T13:57:25.408Z,99701.45
2018-07-22T13:59:53.197Z,99705.60
2018-07-22T14:02:20.948Z,99712.53
2018-07-22T14:04:48.668Z,99705.94
2018-07-22T14:07:16.404Z,99704.34
2018-07-22T14:09:44.147Z,99701.89
2018-07-22T14:12:11.888Z,99698.36
2018-07-22T14:14:39.591Z,99709.71
2018-07-22T14:17:07.308Z,99698.91
2018-07-22T14:19:35.115Z,99703.42
2018-07-22T14:22:02.863Z,99713.96
2018-07-22T14:24:30.617Z,99719.66
2018-07-22T14:26:58.347Z,99724.98
2018-07-22T14:29:26.189Z,99733.16
2018-07-22T14:32:40.700Z,99731.00
2018-07-22T14:35:16.219Z,99732.22
2018-07-22T14:37:43.954Z,99731.70
2018-07-22T14:40:11.684Z,99734.97
2018-07-22T14:42:39.402Z,99743.69
2018-07-22T14:45:07.682Z,99754.47
2018-07-22T14:47:35.535Z,99759.16
2018-07-22T14:50:03.410Z,99759.73
2018-07-22T14:52:31.179Z,99758.20
2018-07-22T14:54:58.934Z,99749.42
2018-07-22T14:57:26.710Z,99747.86
2018-07-22T14:59:54.451Z,99741.70
2018-07-22T15:02:22.187Z,99733.65
2018-07-22T15:04:49.918Z,99730.67
2018-07-22T15:07:17.890Z,99733.63
2018-07-22T15:09:45.643Z,99723.97
2018-07-22T15:12:13.479Z,99724.27
2018-07-22T15:14:41.261Z,99717.56
2018-07-22T15:17:09.045Z,99722.37
2018-07-22T15:19:36.786Z,99726.70
2018-07-22T15:22:04.591Z,99729.66
2018-07-22T15:24:32.409Z,99728.86
2018-07-22T15:27:00.135Z,99729.39
2018-07-22T15:29:27.848Z,99731.02
2018-07-22T15:31:55.587Z,99739.03
2018-07-22T15:34:23.300Z,99735.03
2018-07-22T15:36:50.987Z,99741.16
2018-07-22T15:39:18.688Z,99740.59
2018-07-22T15:41:46.374Z,99746.77
2018-07-22T15:44:14.113Z,99747.84
2018-07-22T15:46:42.115Z,99745.67
2018-07-22T15:49:09.877Z,99740.80
2018-07-22T15:51:37.609Z,99742.44
2018-07-22T15:54:05.316Z,99748.05
2018-07-22T15:56:33.026Z,99750.89
2018-07-22T15:59:00.818Z,99748.41
2018-07-22T16:01:28.630Z,99762.48
2018-07-22T16:03:57.453Z,99756.83
2018-07-22T16:06:25.120Z,99755.46
2018-07-22T16:08:52.846Z,99754.38
2018-07-22T16:11:20.646Z,99757.26
2018-07-22T16:13:48.317Z,99758.70
2018-07-22T16:16:16.221Z,99760.84
2018-07-22T16:18:43.858Z,99760.00
2018-07-22T16:21:11.508Z,99758.06
2018-07-22T16:23:39.482Z,99757.79
2018-07-22T16:26:07.148Z,99755.38
2018-07-22T16:28:34.938Z,99755.34
2018-07-22T16:31:02.670Z,99760.96
2018-07-22T16:33:30.507Z,99767.59
2018-07-22T16:35:58.183Z,99762.74
2018-07-22T16:38:25.814Z,99769.63
2018-07-22T16:40:53.557Z,99766.16
2018-07-22T16:43:21.417Z,99768.12
2018-07-22T16:45:49.366Z,99762.52
2018-07-22T16:48:17.134Z,99758.20
2018-07-22T16:50:44.892Z,99768.30
2018-07-22T16:53:12.613Z,99765.41
2018-07-22T16:55:40.249Z,99764.34
2018-07-22T16:58:07.973Z,99766.21
2018-07-22T17:00:35.621Z,99765.67
2018-07-22T17:03:03.281Z,99761.71
2018-07-22T17:05:31.070Z,99762.83
2018-07-22T17:07:58.746Z,99764.16
2018-07-22T17:10:36.595Z,99763.09
2018-07-22T17:13:04.393Z,99759.63
2018-07-22T17:15:32.036Z,99758.33
2018-07-22T17:17:59.705Z,99758.55
2018-07-22T17:20:27.459Z,99753.70
2018-07-22T17:22:55.229Z,99751.87
2018-07-22T17:25:22.933Z,99753.51
2018-07-22T17:27:50.655Z,99750.84
2018-07-22T17:30:18.361Z,99754.85
2018-07-22T17:32:46.108Z,99755.91
2018-07-22T17:35:13.805Z,99754.85
2018-07-22T17:37:41.565Z,99760.91
2018-07-22T17:40:09.418Z,99758.02
2018-07-22T17:42:37.205Z,99761.44
2018-07-22T17:45:05.040Z,99762.55
2018-07-22T17:47:32.733Z,99758.28
2018-07-22T17:50:00.538Z,99768.16
2018-07-22T17:52:28.294Z,99766.48
2018-07-22T17:54:56.146Z,99773.43
2018-07-22T17:57:23.892Z,99768.52
2018-07-22T17:59:51.518Z,99771.51
2018-07-22T18:02:19.220Z,99771.93
2018-07-22T18:04:47.099Z,99771.40
2018-07-22T18:07:14.813Z,99777.86
2018-07-22T18:09:42.484Z,99780.16
2018-07-22T18:12:10.238Z,99785.17
2018-07-22T18:14:38.073Z,99790.30
2018-07-22T18:17:05.809Z,99806.44
2018-07-22T18:19:33.466Z,99806.98
2018-07-22T18:22:01.226Z,99806.08
2018-07-22T18:24:28.992Z,99807.18
2018-07-22T18:26:56.876Z,99798.13
2018-07-22T18:29:24.734Z,99805.63
2018-07-22T18:31:52.406Z,99793.63
2018-07-22T18:36:53.709Z,99802.75
2018-07-22T18:39:21.433Z,99811.00
2018-07-22T18:41:49.238Z,99806.66
2018-07-22T18:44:16.910Z,99804.53
2018-07-22T18:46:44.596Z,99804.80
2018-07-22T18:49:12.630Z,99802.12
2018-07-22T18:51:40.461Z,99796.28
2018-07-22T18:54:08.199Z,99797.83
2018-07-22T18:56:35.849Z,99806.87
2018-07-22T18:59:03.647Z,99804.73
2018-07-22T19:01:31.295Z,99800.71
2018-07-22T19:04:00.199Z,99807.39
2018-07-22T19:06:27.866Z,99808.14
2018-07-22T19:08:55.868Z,99810.91
2018-07-22T19:11:23.538Z,99815.84
2018-07-22T19:13:51.238Z,99805.17
2018-07-22T19:16:18.937Z,99812.86
2018-07-22T19:18:46.645Z,99814.91
2018-07-22T19:21:14.781Z,99818.02
2018-07-22T19:23:42.409Z,99813.50
2018-07-22T19:26:10.178Z,99815.70
2018-07-22T19:28:38.020Z,99825.70
2018-07-22T19:31:05.705Z,99826.26
2018-07-22T19:33:33.475Z,99832.91
2018-07-22T19:36:01.225Z,99840.28
2018-07-22T19:38:28.951Z,99841.48
2018-07-22T19:40:56.646Z,99839.38
2018-07-22T19:43:24.560Z,99842.60
2018-07-22T19:45:52.276Z,99847.91
2018-07-22T19:48:19.925Z,99847.27
2018-07-22T19:50:48.182Z,99850.39
2018-07-22T19:53:15.857Z,99855.63
2018-07-22T19:55:43.554Z,99859.41
2018-07-22T19:58:11.168Z,99860.56
2018-07-22T20:00:38.951Z,99857.36
2018-07-22T20:03:06.974Z,99859.02
2018-07-22T20:05:34.766Z,99863.63
2018-07-22T20:08:02.469Z,99868.91
2018-07-22T20:10:36.825Z,99863.81
2018-07-22T20:13:04.514Z,99870.65
2018-07-22T20:15:32.173Z,99867.14
2018-07-22T20:18:00.049Z,99875.86
2018-07-22T20:20:27.789Z,99875.03
2018-07-22T20:22:55.602Z,99879.45
2018-07-22T20:25:23.446Z,99878.89
2018-07-22T20:27:51.229Z,99878.00
2018-07-22T20:30:19.028Z,99877.81
2018-07-22T20:32:46.942Z,99878.11
2018-07-22T20:35:14.585Z,99877.84
2018-07-22T20:37:42.286Z,99876.48
2018-07-22T20:40:10.128Z,99890.49
2018-07-22T20:42:37.922Z,99888.27
2018-07-22T20:45:05.627Z,99885.79
2018-07-22T20:47:33.336Z,99890.53
2018-07-22T20:50:01.061Z,99893.20
2018-07-22T20:52:29.489Z,99898.44
2018-07-22T20:54:57.182Z,99898.19
2018-07-22T20:57:24.982Z,99907.55
2018-07-22T20:59:52.597Z,99908.75
2018-07-22T21:02:20.310Z,99910.86
2018-07-22T21:04:48.038Z,99911.56
2018-07-22T21:07:15.665Z,99917.67
2018-07-22T21:09:43.330Z,99912.86
2018-07-22T21:12:54.454Z,99910.32
2018-07-22T21:15:22.132Z,99912.22
2018-07-22T21:17:50.692Z,99915.09
2018-07-22T21:20:19.493Z,99919.09
2018-07-22T21:22:47.317Z,99922.03
2018-07-22T21:25:15.529Z,99921.89
2018-07-22T21:27:44.354Z,99924.63
2018-07-22T21:30:12.616Z,99925.27
2018-07-22T21:32:47.177Z,99923.16
2018-07-22T21:35:14.920Z,99922.11
2018-07-22T21:37:42.669Z,99932.58
2018-07-22T21:40:10.409Z,99933.07
2018-07-22T21:42:38.045Z,99928.03
2018-07-22T21:45:06.547Z,99924.17
2018-07-22T21:47:34.525Z,99924.24
2018-07-22T21:50:02.334Z,99929.25
2018-07-22T21:52:29.981Z,99927.35
2018-07-22T21:54:57.681Z,99931.03
2018-07-22T21:57:25.315Z,99934.42
2018-07-22T21:59:52.947Z,99930.15
2018-07-22T22:02:20.657Z,99933.78
2018-07-22T22:04:48.325Z,99934.34
2018-07-22T22:07:15.999Z,99933.72
2018-07-22T22:09:43.661Z,99931.37
2018-07-22T22:12:11.333Z,99933.65
2018-07-22T22:14:39.025Z,99929.20
2018-07-22T22:17:06.805Z,99941.96
2018-07-22T22:19:34.402Z,99943.13
2018-07-22T22:22:02.130Z,99944.34
2018-07-22T22:24:29.845Z,99949.59
2018-07-22T22:26:57.537Z,99940.95
2018-07-22T22:29:25.283Z,99941.39
2018-07-22T22:31:52.925Z,99937.85
2018-07-22T22:34:20.626Z,99939.70
2018-07-22T22:36:48.402Z,99939.14
2018-07-22T22:39:16.043Z,99941.16
2018-07-22T22:41:43.681Z,99946.95
2018-07-22T22:44:11.420Z,99943.77
2018-07-22T22:46:39.757Z,99939.24
2018-07-22T22:49:07.713Z,99938.95
2018-07-22T22:51:35.345Z,99936.43
2018-07-22T22:54:03.073Z,99938.42
2018-07-22T22:56:30.813Z,99941.94
2018-07-22T22:59:14.198Z,99940.05
2018-07-22T23:01:41.917Z,99939.72
2018-07-22T23:04:09.565Z,99942.14
2018-07-22T23:06:37.360Z,99947.58
2018-07-22T23:09:08.182Z,99951.15
2018-07-22T23:11:36.133Z,99954.19
2018-07-22T23:14:04.090Z,99952.01
2018-07-22T23:16:31.925Z,99951.72
2018-07-22T23:18:59.641Z,99951.95
2018-07-22T23:21:27.252Z,99953.28
2018-07-22T23:23:54.953Z,99953.00
2018-07-22T23:26:22.650Z,99952.53
2018-07-22T23:28:50.368Z,99955.66
2018-07-22T23:31:18.025Z,99952.92
2018-07-22T23:33:45.656Z,99952.11
2018-07-22T23:36:13.386Z,99950.78
2018-07-22T23:38:41.013Z,99950.84
2018-07-22T23:41:08.662Z,99955.58
2018-07-22T23:43:36.339Z,99955.34
2018-07-22T23:46:04.228Z,99951.69
2018-07-22T23:48:31.905Z,99953.78
2018-07-22T23:50:59.558Z,99950.94
2018-07-22T23:53:27.285Z,99951.56
2018-07-22T23:55:54.955Z,99945.08
2018-07-22T23:58:22.601Z,99951.02
